Time;durP1;ratioP1;P1;durP2;ratioP2;P2;SDS_P1;SDS_P2;PMS_P1;PMS_P2;Temp;Humidity;BMP_temperature;BMP_pressure;BME280_temperature;BME280_humidity;BME280_pressure;Samples;Min_cycle;Max_cycle;Signal;HPM_P1;HPM_P2
2023/08/07 00:01:31;;;;;;;6.90;2.00;;;14.00;99.90;;;;;;20766479;28;20034;-80
2023/08/07 00:11:32;;;;;;;11.82;2.40;;;14.00;99.90;;;;;;20765309;28;20049;-80
2023/08/07 00:21:35;;;;;;;9.68;2.10;;;14.10;95.40;;;;;;20770986;28;20034;-81
2023/08/07 00:31:36;;;;;;;10.30;2.00;;;14.30;41.80;;;;;;20791569;28;20037;-80
2023/08/07 00:41:36;;;;;;;8.50;2.03;;;14.30;23.10;;;;;;20770961;28;20073;-80
2023/08/07 00:51:38;;;;;;;6.47;1.70;;;14.40;26.00;;;;;;20763692;28;20053;-80
2023/08/07 01:01:38;;;;;;;6.93;1.70;;;14.20;25.70;;;;;;20799376;28;20130;-80
2023/08/07 01:11:43;;;;;;;9.10;1.80;;;14.20;40.60;;;;;;20799542;28;20041;-80
2023/08/07 01:21:48;;;;;;;9.05;2.25;;;14.10;30.60;;;;;;20900922;28;20459;-80
2023/08/07 01:31:51;;;;;;;7.53;1.88;;;14.20;24.50;;;;;;20902087;28;20029;-80
2023/08/07 01:41:52;;;;;;;5.70;1.67;;;14.30;34.70;;;;;;20825637;28;20049;-80
2023/08/07 01:51:52;;;;;;;7.40;1.50;;;14.10;47.10;;;;;;20788407;28;20045;-80
2023/08/07 02:01:53;;;;;;;5.28;1.80;;;14.00;40.90;;;;;;20782760;28;20464;-80
2023/08/07 02:11:53;;;;;;;9.70;2.35;;;14.20;30.70;;;;;;20777807;28;20046;-80
2023/08/07 02:21:54;;;;;;;9.32;2.08;;;14.20;32.60;;;;;;20779898;28;20539;-80
2023/08/07 02:31:54;;;;;;;11.00;2.10;;;14.20;46.20;;;;;;20790327;28;20119;-80
2023/08/07 02:41:55;;;;;;;11.13;2.25;;;14.30;39.80;;;;;;20770288;28;20598;-80
2023/08/07 02:51:55;;;;;;;8.55;2.10;;;14.50;14.70;;;;;;20771803;28;20042;-80
2023/08/07 03:01:56;;;;;;;8.38;2.03;;;14.50;14.60;;;;;;20773279;28;20044;-80
2023/08/07 03:12:02;;;;;;;6.10;1.73;;;14.40;21.10;;;;;;20794250;28;20033;-81
2023/08/07 03:22:03;;;;;;;5.95;1.73;;;14.20;43.30;;;;;;20794965;28;20052;-80
2023/08/07 03:32:04;;;;;;;11.07;2.20;;;14.10;91.60;;;;;;20774758;28;20043;-79
2023/08/07 03:42:05;;;;;;;8.60;2.30;;;13.80;99.90;;;;;;20787368;28;20109;-80
2023/08/07 03:52:06;;;;;;;9.68;3.00;;;13.80;99.90;;;;;;20791595;28;20033;-79
2023/08/07 04:02:06;;;;;;;13.20;3.30;;;13.80;99.90;;;;;;20774382;28;20069;-80
2023/08/07 04:12:07;;;;;;;6.95;2.35;;;13.80;99.90;;;;;;20775983;28;20033;-81
2023/08/07 04:22:08;;;;;;;6.53;2.00;;;13.80;99.90;;;;;;20781146;28;20029;-79
2023/08/07 04:32:08;;;;;;;13.33;2.97;;;13.80;99.90;;;;;;20770410;28;21372;-78
2023/08/07 04:42:09;;;;;;;14.40;4.60;;;13.70;99.90;;;;;;20770796;28;20099;-78
2023/08/07 04:52:09;;;;;;;14.85;3.97;;;13.80;99.90;;;;;;20764061;28;20046;-77
2023/08/07 05:02:10;;;;;;;7.38;2.50;;;13.90;99.90;;;;;;20777566;28;20045;-78
2023/08/07 05:12:10;;;;;;;10.07;2.80;;;13.90;99.90;;;;;;20770865;28;20029;-78
2023/08/07 05:22:11;;;;;;;8.70;2.58;;;13.90;99.90;;;;;;20770742;28;20471;-78
2023/08/07 05:32:13;;;;;;;10.65;3.10;;;14.20;99.90;;;;;;20758685;28;20089;-77
2023/08/07 05:42:14;;;;;;;9.23;2.92;;;14.20;99.90;;;;;;20758191;28;20052;-78
2023/08/07 05:52:15;;;;;;;11.35;3.75;;;14.10;99.90;;;;;;20788039;28;20038;-78
2023/08/07 06:02:16;;;;;;;11.88;3.05;;;14.30;99.90;;;;;;20787517;28;20562;-78
2023/08/07 06:12:16;;;;;;;9.00;2.67;;;14.60;94.60;;;;;;20792373;28;20041;-77
2023/08/07 06:22:17;;;;;;;7.50;2.95;;;14.50;74.40;;;;;;20781160;28;20594;-78
2023/08/07 06:32:18;;;;;;;11.73;2.95;;;14.40;59.00;;;;;;20798153;28;20314;-79
2023/08/07 06:42:18;;;;;;;7.07;2.28;;;14.80;78.10;;;;;;20790058;28;20469;-78
2023/08/07 06:52:19;;;;;;;9.57;2.72;;;15.30;19.50;;;;;;20782811;28;20099;-79
2023/08/07 07:02:19;;;;;;;9.55;2.70;;;15.40;1.00;;;;;;20786954;28;20038;-80
2023/08/07 07:12:20;;;;;;;14.20;3.97;;;15.20;6.20;;;;;;20785578;28;20659;-82
2023/08/07 07:22:20;;;;;;;9.50;2.58;;;15.00;5.30;;;;;;20782063;28;20459;-83
2023/08/07 07:32:21;;;;;;;6.72;2.53;;;15.00;10.10;;;;;;20776529;28;20508;-83
2023/08/07 07:42:21;;;;;;;10.43;2.00;;;15.20;20.80;;;;;;20787934;28;20049;-83
2023/08/07 07:52:22;;;;;;;7.53;2.55;;;15.40;1.00;;;;;;20783428;28;20045;-83
2023/08/07 08:02:25;;;;;;;9.48;2.20;;;15.70;1.00;;;;;;20785502;28;20041;-80
2023/08/07 08:12:26;;;;;;;11.38;2.40;;;15.90;1.00;;;;;;20791137;28;20040;-81
2023/08/07 08:22:27;;;;;;;8.85;1.80;;;16.10;1.00;;;;;;20762102;28;20046;-80
2023/08/07 08:32:28;;;;;;;6.85;1.65;;;16.30;1.00;;;;;;20778759;28;20048;-80
2023/08/07 08:42:28;;;;;;;7.53;2.27;;;16.50;1.00;;;;;;20781508;28;20574;-82
2023/08/07 08:52:31;;;;;;;7.00;2.10;;;16.50;1.00;;;;;;20778513;28;20171;-81
2023/08/07 09:02:33;;;;;;;6.60;2.00;;;16.60;1.00;;;;;;20783220;28;20489;-82
2023/08/07 09:12:37;;;;;;;9.30;1.80;;;16.60;1.00;;;;;;20783171;28;20041;-81
2023/08/07 09:22:39;;;;;;;7.28;1.92;;;16.40;1.00;;;;;;20788091;28;20049;-82
2023/08/07 09:32:41;;;;;;;15.02;3.85;;;16.20;1.00;;;;;;20794847;28;20034;-82
2023/08/07 09:42:42;;;;;;;10.85;2.92;;;16.80;1.00;;;;;;20797287;28;20038;-81
2023/08/07 09:52:47;;;;;;;8.05;2.47;;;17.40;1.00;;;;;;20796450;28;20037;-81
2023/08/07 10:02:49;;;;;;;6.88;1.63;;;17.10;1.00;;;;;;20789697;28;20589;-81
2023/08/07 10:12:50;;;;;;;6.97;1.92;;;16.60;1.00;;;;;;20789742;28;20069;-81
2023/08/07 10:22:52;;;;;;;8.77;2.53;;;16.80;1.00;;;;;;20792451;28;20077;-82
2023/08/07 10:32:53;;;;;;;7.40;1.50;;;17.30;1.00;;;;;;20786201;28;20515;-81
2023/08/07 10:43:16;;;;;;;7.93;1.67;;;17.50;1.00;;;;;;20795198;28;20046;-81
2023/08/07 10:53:27;;;;;;;8.23;1.58;;;17.50;1.00;;;;;;20801953;28;20128;-82
2023/08/07 11:03:28;;;;;;;11.15;2.67;;;17.60;1.00;;;;;;20786541;28;20041;-83
2023/08/07 11:13:29;;;;;;;5.82;1.50;;;17.40;1.00;;;;;;20783587;28;20040;-84
2023/08/07 11:23:30;;;;;;;4.90;1.92;;;17.70;1.00;;;;;;20777061;28;20033;-84
2023/08/07 11:33:31;;;;;;;5.10;1.70;;;17.70;1.00;;;;;;20772127;28;20374;-84
2023/08/07 11:43:33;;;;;;;5.30;1.47;;;18.20;1.00;;;;;;20789227;28;20095;-81
2023/08/07 11:53:37;;;;;;;5.88;1.55;;;18.80;1.00;;;;;;20777465;28;20464;-84
2023/08/07 12:03:41;;;;;;;5.68;1.60;;;18.80;1.00;;;;;;20778222;28;20108;-82
2023/08/07 12:13:44;;;;;;;5.28;2.10;;;18.20;1.00;;;;;;20769418;28;20022;-81
2023/08/07 12:23:47;;;;;;;4.35;1.25;;;17.90;1.00;;;;;;20804479;28;20458;-81
2023/08/07 12:33:49;;;;;;;3.80;0.98;;;18.50;1.00;;;;;;20772441;28;20051;-83
2023/08/07 12:43:49;;;;;;;4.85;1.50;;;18.70;1.00;;;;;;20780039;28;20057;-82
2023/08/07 12:53:51;;;;;;;4.63;1.33;;;18.30;1.00;;;;;;20773709;28;20049;-82
2023/08/07 13:03:52;;;;;;;5.03;1.42;;;18.50;1.00;;;;;;20778446;28;20515;-83
2023/08/07 13:13:52;;;;;;;4.43;1.30;;;19.20;1.00;;;;;;20771962;28;20052;-82
2023/08/07 13:23:53;;;;;;;5.50;1.30;;;20.10;1.00;;;;;;20761649;28;20224;-82
2023/08/07 13:33:53;;;;;;;5.32;1.35;;;20.40;1.00;;;;;;20747236;28;20093;-81
2023/08/07 13:43:54;;;;;;;2.80;1.40;;;20.40;1.00;;;;;;20748613;28;20042;-77
2023/08/07 13:53:55;;;;;;;4.15;1.25;;;20.30;1.00;;;;;;20754665;28;20107;-79
2023/08/07 14:03:55;;;;;;;3.42;1.35;;;20.10;1.00;;;;;;20752852;28;20037;-78
2023/08/07 14:13:57;;;;;;;2.73;1.10;;;20.30;1.00;;;;;;20785810;28;20026;-78
2023/08/07 14:23:57;;;;;;;3.97;1.23;;;20.20;1.00;;;;;;20813568;28;20543;-79
2023/08/07 14:33:58;;;;;;;6.88;1.50;;;19.70;1.00;;;;;;20827374;28;20053;-78
2023/08/07 14:43:58;;;;;;;4.80;1.85;;;20.00;1.00;;;;;;20873607;28;20049;-80
2023/08/07 14:53:59;;;;;;;4.07;1.52;;;19.70;1.00;;;;;;20846887;28;20033;-81
2023/08/07 15:04:00;;;;;;;5.18;1.58;;;19.20;1.00;;;;;;20752282;28;20533;-80
2023/08/07 15:14:04;;;;;;;2.53;1.48;;;19.10;1.00;;;;;;20748437;28;20034;-80
2023/08/07 15:24:05;;;;;;;5.00;1.90;;;19.60;1.00;;;;;;20735094;28;20548;-79
2023/08/07 15:34:05;;;;;;;5.00;1.45;;;19.10;1.00;;;;;;20752551;28;20568;-80
2023/08/07 15:44:06;;;;;;;3.42;1.67;;;18.60;1.00;;;;;;20766245;28;20643;-80
2023/08/07 15:54:06;;;;;;;4.78;1.88;;;18.40;1.00;;;;;;20780837;28;20381;-81
2023/08/07 16:04:09;;;;;;;6.40;1.55;;;18.30;1.00;;;;;;20769986;28;20041;-80
2023/08/07 16:14:09;;;;;;;3.97;1.88;;;18.10;1.00;;;;;;20756037;28;20481;-85
2023/08/07 16:24:10;;;;;;;3.03;1.77;;;17.90;1.00;;;;;;20741490;28;20037;-80
2023/08/07 16:34:11;;;;;;;6.03;2.90;;;16.60;1.00;;;;;;20751993;28;20516;-77
2023/08/07 16:44:12;;;;;;;5.70;3.75;;;15.80;18.80;;;;;;20754565;28;20041;-77
2023/08/07 16:54:12;;;;;;;3.92;2.90;;;15.70;73.40;;;;;;20771166;28;20033;-77
2023/08/07 17:04:13;;;;;;;3.00;1.80;;;15.60;99.90;;;;;;20779988;28;20029;-77
2023/08/07 17:14:13;;;;;;;5.47;1.50;;;15.70;60.60;;;;;;20768162;28;20466;-78
2023/08/07 17:24:14;;;;;;;3.35;1.60;;;15.90;17.50;;;;;;20763908;28;20091;-78
2023/08/07 17:34:15;;;;;;;5.00;1.60;;;15.90;1.00;;;;;;20750369;28;20061;-80
2023/08/07 17:44:16;;;;;;;5.57;3.88;;;15.90;1.00;;;;;;20771571;28;20073;-80
2023/08/07 17:54:17;;;;;;;5.00;2.50;;;15.90;1.00;;;;;;20774094;28;20041;-80
2023/08/07 18:04:18;;;;;;;3.55;2.05;;;15.90;1.00;;;;;;20781366;28;20382;-80
2023/08/07 18:14:18;;;;;;;3.05;1.50;;;15.80;1.00;;;;;;20778101;28;20049;-80
2023/08/07 18:24:19;;;;;;;2.88;1.48;;;15.80;1.00;;;;;;20776901;28;20049;-80
2023/08/07 18:34:19;;;;;;;4.68;1.80;;;15.70;1.00;;;;;;20776650;28;20077;-78
2023/08/07 18:44:20;;;;;;;4.45;1.75;;;15.70;1.00;;;;;;20778770;28;20074;-78
2023/08/07 18:54:20;;;;;;;4.07;2.03;;;15.60;1.00;;;;;;20782115;28;20227;-78
2023/08/07 19:04:22;;;;;;;4.90;1.95;;;15.60;1.00;;;;;;20767727;28;20464;-77
2023/08/07 19:14:22;;;;;;;3.47;2.17;;;15.40;1.00;;;;;;20773882;28;20038;-78
2023/08/07 19:24:23;;;;;;;3.60;1.80;;;15.20;1.00;;;;;;20773593;28;20055;-78
2023/08/07 19:34:24;;;;;;;3.08;1.60;;;15.00;1.00;;;;;;20758836;28;20693;-78
2023/08/07 19:44:25;;;;;;;3.80;1.70;;;14.90;1.00;;;;;;20749131;28;20072;-77
2023/08/07 19:54:25;;;;;;;3.78;2.65;;;14.80;3.60;;;;;;20757902;28;20800;-78
2023/08/07 20:04:26;;;;;;;5.00;1.90;;;14.80;3.10;;;;;;20751448;28;20124;-78
2023/08/07 20:14:27;;;;;;;3.42;2.42;;;14.70;12.80;;;;;;20761153;28;20116;-77
2023/08/07 20:24:28;;;;;;;4.28;2.30;;;14.50;58.00;;;;;;20744969;28;20077;-78
2023/08/07 20:34:28;;;;;;;5.10;2.30;;;14.50;92.40;;;;;;20756256;28;20045;-77
2023/08/07 20:44:29;;;;;;;4.20;2.70;;;14.50;99.90;;;;;;20752121;28;20445;-80
2023/08/07 20:54:30;;;;;;;5.75;3.05;;;14.60;99.90;;;;;;20760700;28;20048;-81
2023/08/07 21:04:30;;;;;;;5.97;3.40;;;14.70;99.90;;;;;;20744685;28;20042;-80
2023/08/07 21:14:31;;;;;;;7.00;3.88;;;14.90;99.90;;;;;;20749840;28;20041;-80
2023/08/07 21:24:32;;;;;;;5.32;3.60;;;14.90;99.90;;;;;;20774505;28;20550;-81
2023/08/07 21:34:32;;;;;;;6.30;3.63;;;14.90;99.90;;;;;;20766608;28;20073;-82
2023/08/07 21:44:33;;;;;;;5.82;3.90;;;14.80;99.90;;;;;;20788512;28;20128;-81
2023/08/07 21:54:34;;;;;;;6.88;4.90;;;14.80;99.90;;;;;;20769478;28;20037;-81
2023/08/07 22:04:35;;;;;;;9.50;4.75;;;14.80;99.90;;;;;;20771375;28;20041;-81
2023/08/07 22:14:35;;;;;;;7.38;4.30;;;14.70;99.90;;;;;;20769369;28;20091;-81
2023/08/07 22:24:36;;;;;;;9.63;4.40;;;14.70;99.90;;;;;;20774367;28;20128;-81
2023/08/07 22:34:36;;;;;;;10.50;4.47;;;14.70;99.90;;;;;;20768286;28;20124;-81
2023/08/07 22:44:37;;;;;;;6.65;3.83;;;14.80;99.90;;;;;;20748746;28;20052;-81
2023/08/07 22:54:38;;;;;;;12.45;4.22;;;14.80;99.90;;;;;;20750604;28;20033;-81
2023/08/07 23:04:38;;;;;;;10.95;3.53;;;14.90;99.90;;;;;;20749135;28;20155;-78
2023/08/07 23:14:39;;;;;;;11.35;3.92;;;14.90;99.90;;;;;;20751730;28;20041;-78
2023/08/07 23:24:39;;;;;;;11.63;4.20;;;15.10;99.90;;;;;;20748585;28;20094;-78
2023/08/07 23:34:40;;;;;;;11.25;4.28;;;15.10;99.90;;;;;;20743161;28;20120;-78
2023/08/07 23:44:41;;;;;;;12.85;3.85;;;15.30;99.90;;;;;;20760889;28;20129;-78
2023/08/07 23:54:41;;;;;;;16.88;4.10;;;15.40;99.90;;;;;;20768359;28;20060;-78
